Time;durP1;ratioP1;P1;durP2;ratioP2;P2;SDS_P1;SDS_P2;PMS_P1;PMS_P2;Temp;Humidity;BMP_temperature;BMP_pressure;BME280_temperature;BME280_humidity;BME280_pressure;Samples;Min_cycle;Max_cycle;Signal;HPM_P1;HPM_P2
2021/12/20 00:00:20;;;;;;;;;;;20.70;44.90;;;;;;682763;29;926;-84
2021/12/20 00:00:41;;;;;;;;;;;20.70;45.10;;;;;;682638;29;1577;-82
2021/12/20 00:01:03;;;;;;;;;;;20.70;45.00;;;;;;682691;29;772;-84
2021/12/20 00:01:24;;;;;;;;;;;20.70;45.20;;;;;;682544;29;764;-84
2021/12/20 00:01:45;;;;;;;;;;;20.60;44.90;;;;;;682851;29;792;-85
2021/12/20 00:02:06;;;;;;;;;;;20.60;44.90;;;;;;682904;29;811;-85
2021/12/20 00:02:27;;;;;;;;;;;20.60;45.10;;;;;;682848;29;835;-84
2021/12/20 00:02:50;;;;;;;;;;;20.60;45.10;;;;;;682695;29;895;-83
2021/12/20 00:03:10;;;;;;;;;;;20.70;45.30;;;;;;682681;29;843;-84
2021/12/20 00:03:31;;;;;;;;;;;20.70;45.20;;;;;;682559;29;1314;-83
2021/12/20 00:03:51;;;;;;;;;;;20.60;45.20;;;;;;682728;29;867;-83
2021/12/20 00:04:12;;;;;;;;;;;20.70;45.00;;;;;;682802;29;787;-85
2021/12/20 00:04:33;;;;;;;;;;;20.70;45.20;;;;;;680075;29;851;-84
2021/12/20 00:04:53;;;;;;;;;;;20.60;45.30;;;;;;680075;29;929;-84
2021/12/20 00:05:15;;;;;;;;;;;20.70;45.20;;;;;;680098;29;795;-84
2021/12/20 00:05:35;;;;;;;;;;;20.70;45.40;;;;;;679890;29;858;-84
2021/12/20 00:05:56;;;;;;;;;;;20.70;44.90;;;;;;680075;29;1153;-84
2021/12/20 00:06:16;;;;;;;;;;;20.60;45.10;;;;;;680402;29;815;-86
2021/12/20 00:06:37;;;;;;;;;;;20.30;45.10;;;;;;682735;29;858;-83
2021/12/20 00:06:57;;;;;;;;;;;20.70;45.30;;;;;;682506;29;1188;-85
2021/12/20 00:07:19;;;;;;;;;;;20.70;45.00;;;;;;682658;29;1169;-81
2021/12/20 00:07:39;;;;;;;;;;;20.60;44.80;;;;;;682462;29;1136;-82
2021/12/20 00:08:00;;;;;;;;;;;20.60;45.00;;;;;;682695;29;752;-85
2021/12/20 00:08:21;;;;;;;;;;;20.60;45.10;;;;;;682700;29;1250;-84
2021/12/20 00:08:41;;;;;;;;;;;20.60;44.80;;;;;;682716;29;858;-82
2021/12/20 00:09:03;;;;;;;;;;;20.60;44.80;;;;;;682562;29;1341;-84
2021/12/20 00:09:23;;;;;;;;;;;20.60;44.90;;;;;;680034;29;1420;-83
2021/12/20 00:09:44;;;;;;;;;;;20.60;45.00;;;;;;679854;29;1446;-84
2021/12/20 00:10:05;;;;;;;;;;;20.60;45.00;;;;;;680185;29;784;-83
2021/12/20 00:10:25;;;;;;;;;;;20.60;45.00;;;;;;677408;29;2087;-85
2021/12/20 00:10:46;;;;;;;;;;;20.60;44.60;;;;;;677430;29;887;-85
2021/12/20 00:11:06;;;;;;;;;;;20.60;44.80;;;;;;677681;29;820;-86
2021/12/20 00:11:27;;;;;;;;;;;20.60;44.80;;;;;;679987;29;811;-84
2021/12/20 00:11:47;;;;;;;;;;;20.70;45.00;;;;;;679526;29;776;-84
2021/12/20 00:12:08;;;;;;;;;;;20.60;44.80;;;;;;680108;29;791;-83
2021/12/20 00:12:29;;;;;;;;;;;20.70;45.00;;;;;;682680;29;1342;-85
2021/12/20 00:12:50;;;;;;;;;;;20.70;45.10;;;;;;682750;29;744;-86
2021/12/20 00:13:10;;;;;;;;;;;20.60;44.80;;;;;;682505;29;1154;-83
2021/12/20 00:13:31;;;;;;;;;;;20.60;44.70;;;;;;682780;29;815;-83
2021/12/20 00:13:51;;;;;;;;;;;20.60;44.60;;;;;;682702;29;878;-84
2021/12/20 00:14:12;;;;;;;;;;;20.60;44.50;;;;;;682526;29;1022;-84
2021/12/20 00:14:32;;;;;;;;;;;20.60;44.40;;;;;;682721;29;1552;-84
2021/12/20 00:14:53;;;;;;;;;;;20.60;44.60;;;;;;682560;28;1358;-85
2021/12/20 00:15:13;;;;;;;;;;;20.60;44.50;;;;;;682576;28;1346;-84
2021/12/20 00:15:34;;;;;;;;;;;20.70;44.70;;;;;;680191;29;1315;-81
2021/12/20 00:15:55;;;;;;;;;;;20.60;44.90;;;;;;680027;29;855;-81
2021/12/20 00:16:16;;;;;;;;;;;20.60;45.00;;;;;;680259;29;882;-83
2021/12/20 00:16:36;;;;;;;;;;;20.60;44.50;;;;;;680150;29;1498;-83
2021/12/20 00:16:57;;;;;;;;;;;20.60;44.60;;;;;;680187;29;855;-83
2021/12/20 00:17:17;;;;;;;;;;;20.60;44.50;;;;;;680273;29;1205;-84
2021/12/20 00:17:38;;;;;;;;;;;20.60;44.90;;;;;;680201;29;1319;-80
2021/12/20 00:17:59;;;;;;;;;;;20.60;44.50;;;;;;680125;29;859;-81
2021/12/20 00:18:19;;;;;;;;;;;20.60;44.50;;;;;;680365;29;870;-82
2021/12/20 00:18:42;;;;;;;;;;;20.60;44.70;;;;;;680842;28;976;-83
2021/12/20 00:19:02;;;;;;;;;;;20.60;44.90;;;;;;685556;28;803;-81
2021/12/20 00:19:25;;;;;;;;;;;20.60;44.60;;;;;;686337;28;791;-81
2021/12/20 00:19:45;;;;;;;;;;;20.60;44.90;;;;;;685552;28;1320;-83
2021/12/20 00:20:06;;;;;;;;;;;20.60;44.80;;;;;;685291;28;819;-84
2021/12/20 00:20:27;;;;;;;;;;;20.60;44.30;;;;;;685510;28;823;-83
2021/12/20 00:20:47;;;;;;;;;;;20.60;44.30;;;;;;683263;28;1201;-84
2021/12/20 00:21:08;;;;;;;;;;;20.60;44.50;;;;;;682454;29;1383;-85
2021/12/20 00:21:29;;;;;;;;;;;20.60;44.50;;;;;;682982;28;1318;-83
2021/12/20 00:21:49;;;;;;;;;;;20.60;44.30;;;;;;682827;28;1177;-82
2021/12/20 00:22:10;;;;;;;;;;;20.60;44.40;;;;;;685339;28;1336;-83
2021/12/20 00:22:30;;;;;;;;;;;20.60;44.30;;;;;;685474;28;806;-82
2021/12/20 00:22:51;;;;;;;;;;;20.60;44.30;;;;;;685493;28;783;-83
2021/12/20 00:23:12;;;;;;;;;;;20.60;44.80;;;;;;685669;28;965;-83
2021/12/20 00:23:32;;;;;;;;;;;20.60;44.80;;;;;;685666;28;1134;-84
2021/12/20 00:23:53;;;;;;;;;;;20.60;44.90;;;;;;688035;28;794;-84
2021/12/20 00:24:13;;;;;;;;;;;20.60;44.50;;;;;;682700;28;1593;-84
2021/12/20 00:24:34;;;;;;;;;;;20.60;44.50;;;;;;682787;29;796;-82
2021/12/20 00:24:54;;;;;;;;;;;20.60;44.50;;;;;;682800;29;926;-82
2021/12/20 00:25:15;;;;;;;;;;;20.60;44.40;;;;;;683094;28;882;-83
2021/12/20 00:25:36;;;;;;;;;;;20.60;44.40;;;;;;685492;28;807;-84
2021/12/20 00:25:56;;;;;;;;;;;20.60;44.00;;;;;;685848;28;1332;-83
2021/12/20 00:26:17;;;;;;;;;;;20.60;44.50;;;;;;688111;28;1476;-84
2021/12/20 00:26:37;;;;;;;;;;;20.60;44.50;;;;;;685314;28;1359;-83
2021/12/20 00:26:58;;;;;;;;;;;20.60;44.20;;;;;;685335;28;932;-84
2021/12/20 00:27:19;;;;;;;;;;;20.60;44.20;;;;;;685493;28;811;-84
2021/12/20 00:27:39;;;;;;;;;;;20.60;44.10;;;;;;685553;28;521;-83
2021/12/20 00:28:00;;;;;;;;;;;20.50;44.30;;;;;;685558;28;795;-83
2021/12/20 00:28:21;;;;;;;;;;;20.60;44.50;;;;;;685876;28;803;-84
2021/12/20 00:28:42;;;;;;;;;;;20.60;44.20;;;;;;687566;28;767;-83
2021/12/20 00:29:02;;;;;;;;;;;19.80;43.70;;;;;;685398;28;1399;-85
2021/12/20 00:29:23;;;;;;;;;;;20.60;44.40;;;;;;685495;28;861;-83
2021/12/20 00:29:43;;;;;;;;;;;20.50;44.80;;;;;;685553;28;822;-84
2021/12/20 00:30:05;;;;;;;;;;;20.50;45.00;;;;;;685587;28;1416;-83
2021/12/20 00:30:25;;;;;;;;;;;20.60;44.50;;;;;;685379;28;1911;-85
2021/12/20 00:30:46;;;;;;;;;;;20.50;44.60;;;;;;685564;28;1229;-81
2021/12/20 00:31:07;;;;;;;;;;;20.50;44.90;;;;;;688203;28;787;-81
2021/12/20 00:31:28;;;;;;;;;;;20.50;45.00;;;;;;688115;28;779;-84
2021/12/20 00:31:48;;;;;;;;;;;20.60;45.20;;;;;;687743;28;910;-82
2021/12/20 00:32:09;;;;;;;;;;;20.50;45.10;;;;;;688108;28;1246;-81
2021/12/20 00:32:31;;;;;;;;;;;20.60;45.00;;;;;;685701;28;1694;-82
2021/12/20 00:32:51;;;;;;;;;;;20.60;45.00;;;;;;688009;28;783;-83
2021/12/20 00:33:12;;;;;;;;;;;20.60;45.00;;;;;;685432;28;1291;-82
2021/12/20 00:33:35;;;;;;;;;;;20.60;45.00;;;;;;685529;28;832;-83
2021/12/20 00:33:57;;;;;;;;;;;20.60;45.10;;;;;;684903;28;921;-84
2021/12/20 00:34:18;;;;;;;;;;;20.60;45.00;;;;;;683968;28;851;-86
2021/12/20 00:34:40;;;;;;;;;;;20.60;45.00;;;;;;685591;28;811;-85
2021/12/20 00:35:02;;;;;;;;;;;20.60;45.00;;;;;;685385;28;1222;-84
2021/12/20 00:35:25;;;;;;;;;;;20.60;45.10;;;;;;686826;28;799;-82
2021/12/20 00:35:46;;;;;;;;;;;20.60;45.20;;;;;;688332;28;893;-83
2021/12/20 00:36:07;;;;;;;;;;;20.60;45.10;;;;;;685500;28;808;-85
2021/12/20 00:36:29;;;;;;;;;;;20.60;45.30;;;;;;685431;28;906;-82
2021/12/20 00:36:57;;;;;;;;;;;20.60;45.20;;;;;;684256;28;1217;-84
2021/12/20 00:40:37;;;;;;;;;;;20.60;45.00;;;;;;685815;28;629;-84
2021/12/20 00:40:58;;;;;;;;;;;20.60;45.10;;;;;;685334;28;1551;-86
2021/12/20 00:41:18;;;;;;;;;;;20.60;45.10;;;;;;685369;28;1308;-82
2021/12/20 00:41:39;;;;;;;;;;;20.60;45.00;;;;;;685330;28;878;-85
2021/12/20 00:42:00;;;;;;;;;;;20.60;44.90;;;;;;685511;28;1494;-83
2021/12/20 00:42:20;;;;;;;;;;;20.60;44.90;;;;;;685607;28;559;-84
2021/12/20 00:42:41;;;;;;;;;;;20.60;45.00;;;;;;685944;28;1282;-84
2021/12/20 00:43:02;;;;;;;;;;;20.60;44.90;;;;;;687894;28;810;-84
2021/12/20 00:43:22;;;;;;;;;;;20.60;45.00;;;;;;688003;28;803;-85
2021/12/20 00:43:43;;;;;;;;;;;20.60;45.00;;;;;;688144;28;910;-84
2021/12/20 00:44:03;;;;;;;;;;;20.60;44.90;;;;;;686929;28;1131;-83
2021/12/20 00:44:24;;;;;;;;;;;20.60;45.00;;;;;;685858;28;862;-82
2021/12/20 00:44:44;;;;;;;;;;;20.60;45.00;;;;;;688124;28;818;-82
2021/12/20 00:45:06;;;;;;;;;;;20.60;44.90;;;;;;687734;28;1259;-83
2021/12/20 00:45:30;;;;;;;;;;;20.60;45.00;;;;;;685252;28;1347;-80
2021/12/20 00:45:51;;;;;;;;;;;20.60;44.90;;;;;;685507;28;843;-83
2021/12/20 00:46:12;;;;;;;;;;;20.60;44.90;;;;;;685602;28;862;-83
2021/12/20 00:46:33;;;;;;;;;;;20.60;45.00;;;;;;685417;28;1034;-83
2021/12/20 00:46:54;;;;;;;;;;;20.60;44.90;;;;;;684427;28;877;-83
2021/12/20 00:47:14;;;;;;;;;;;20.60;45.00;;;;;;685277;28;1104;-80
2021/12/20 00:47:35;;;;;;;;;;;20.60;44.90;;;;;;685315;28;768;-82
2021/12/20 00:47:55;;;;;;;;;;;20.60;44.90;;;;;;685410;28;1254;-83
2021/12/20 00:48:16;;;;;;;;;;;20.60;44.80;;;;;;685524;28;918;-83
2021/12/20 00:48:37;;;;;;;;;;;20.60;44.80;;;;;;685533;28;879;-83
2021/12/20 00:48:57;;;;;;;;;;;20.60;44.80;;;;;;685084;28;851;-84
2021/12/20 00:49:18;;;;;;;;;;;20.60;44.90;;;;;;682732;29;894;-82
2021/12/20 00:49:38;;;;;;;;;;;20.60;44.90;;;;;;682265;29;1165;-81
2021/12/20 00:49:59;;;;;;;;;;;20.60;44.80;;;;;;683081;29;938;-84
2021/12/20 00:50:20;;;;;;;;;;;20.60;44.80;;;;;;682964;29;1962;-83
2021/12/20 00:50:41;;;;;;;;;;;20.60;44.80;;;;;;683743;28;1128;-83
2021/12/20 00:51:02;;;;;;;;;;;20.60;44.80;;;;;;685612;28;929;-82
2021/12/20 00:51:22;;;;;;;;;;;20.60;44.80;;;;;;685685;28;802;-82
2021/12/20 00:51:43;;;;;;;;;;;20.60;44.80;;;;;;685468;28;814;-83
2021/12/20 00:52:04;;;;;;;;;;;20.60;44.70;;;;;;685407;28;1120;-83
2021/12/20 00:52:25;;;;;;;;;;;20.60;44.80;;;;;;685547;28;834;-84
2021/12/20 00:52:46;;;;;;;;;;;20.60;44.80;;;;;;685268;28;1527;-86
2021/12/20 00:53:07;;;;;;;;;;;20.60;44.70;;;;;;685427;28;917;-84
2021/12/20 00:53:28;;;;;;;;;;;20.60;44.70;;;;;;685449;28;795;-82
2021/12/20 00:53:48;;;;;;;;;;;20.60;44.80;;;;;;685718;28;1092;-84
2021/12/20 00:54:09;;;;;;;;;;;20.60;44.80;;;;;;688233;28;717;-84
2021/12/20 00:54:30;;;;;;;;;;;20.60;44.70;;;;;;688154;28;796;-85
2021/12/20 00:54:51;;;;;;;;;;;20.60;44.60;;;;;;685321;28;1332;-84
2021/12/20 00:55:15;;;;;;;;;;;20.60;44.60;;;;;;682757;28;1374;-83
2021/12/20 00:55:36;;;;;;;;;;;20.60;44.80;;;;;;682875;29;822;-84
2021/12/20 00:55:57;;;;;;;;;;;20.60;44.60;;;;;;682731;29;887;-82
2021/12/20 00:56:17;;;;;;;;;;;20.50;44.60;;;;;;682836;29;936;-82
2021/12/20 00:56:38;;;;;;;;;;;20.50;44.60;;;;;;683942;28;990;-83
2021/12/20 00:56:58;;;;;;;;;;;20.60;44.60;;;;;;683473;28;804;-84
2021/12/20 00:57:19;;;;;;;;;;;20.60;44.60;;;;;;685669;28;771;-85
2021/12/20 00:57:40;;;;;;;;;;;20.50;44.60;;;;;;685627;28;886;-82
2021/12/20 00:58:00;;;;;;;;;;;20.60;44.60;;;;;;685424;28;783;-82
2021/12/20 00:58:21;;;;;;;;;;;20.60;44.60;;;;;;685666;28;779;-81
2021/12/20 00:58:41;;;;;;;;;;;20.50;44.60;;;;;;685748;28;1005;-81
2021/12/20 00:59:02;;;;;;;;;;;20.50;44.60;;;;;;688207;28;796;-83
2021/12/20 00:59:23;;;;;;;;;;;20.50;44.50;;;;;;688400;28;775;-82
2021/12/20 00:59:43;;;;;;;;;;;20.60;44.60;;;;;;688307;28;795;-84
2021/12/20 01:00:05;;;;;;;;;;;20.60;44.60;;;;;;688124;28;906;-83
2021/12/20 01:00:27;;;;;;;;;;;20.50;44.50;;;;;;688198;28;885;-84
2021/12/20 01:00:48;;;;;;;;;;;20.50;44.60;;;;;;687721;28;784;-85
2021/12/20 01:01:10;;;;;;;;;;;20.60;44.60;;;;;;685666;28;787;-85
2021/12/20 01:01:31;;;;;;;;;;;20.50;44.50;;;;;;685471;28;878;-86
2021/12/20 01:01:52;;;;;;;;;;;20.50;44.50;;;;;;682930;28;922;-84
2021/12/20 01:02:13;;;;;;;;;;;20.50;44.60;;;;;;683016;28;807;-84
2021/12/20 01:02:33;;;;;;;;;;;20.60;44.50;;;;;;682853;28;1462;-82
2021/12/20 01:02:55;;;;;;;;;;;20.50;44.50;;;;;;682797;28;1344;-83
2021/12/20 01:03:15;;;;;;;;;;;20.50;44.60;;;;;;683370;28;966;-86
2021/12/20 01:03:36;;;;;;;;;;;20.50;44.50;;;;;;685453;28;847;-85
2021/12/20 01:03:57;;;;;;;;;;;20.50;44.50;;;;;;685625;28;842;-83
2021/12/20 01:04:17;;;;;;;;;;;20.60;44.60;;;;;;685227;28;819;-84
2021/12/20 01:04:38;;;;;;;;;;;20.50;44.60;;;;;;683302;28;1368;-83
2021/12/20 01:04:58;;;;;;;;;;;20.50;44.50;;;;;;685481;28;891;-86
2021/12/20 01:05:20;;;;;;;;;;;20.50;44.50;;;;;;685571;28;850;-83
2021/12/20 01:05:41;;;;;;;;;;;20.50;44.50;;;;;;685405;28;941;-85
2021/12/20 01:06:02;;;;;;;;;;;20.60;44.50;;;;;;685527;28;863;-83
2021/12/20 01:06:23;;;;;;;;;;;20.50;44.50;;;;;;685764;28;780;-83
2021/12/20 01:06:43;;;;;;;;;;;20.50;44.50;;;;;;687972;28;1491;-84
2021/12/20 01:07:04;;;;;;;;;;;20.60;44.50;;;;;;687976;28;803;-84
2021/12/20 01:07:24;;;;;;;;;;;20.50;44.50;;;;;;688129;28;811;-82
2021/12/20 01:07:45;;;;;;;;;;;20.50;44.50;;;;;;688158;28;548;-85
2021/12/20 01:08:07;;;;;;;;;;;20.50;44.50;;;;;;687725;28;854;-83
2021/12/20 01:08:35;;;;;;;;;;;20.50;44.50;;;;;;685312;28;854;-85
2021/12/20 01:08:56;;;;;;;;;;;20.50;44.50;;;;;;685376;28;843;-84
2021/12/20 01:09:16;;;;;;;;;;;20.50;44.50;;;;;;682551;29;1122;-82
2021/12/20 01:09:37;;;;;;;;;;;20.50;44.50;;;;;;680058;29;812;-86
2021/12/20 01:10:01;;;;;;;;;;;20.50;44.50;;;;;;681599;29;823;-83
2021/12/20 01:10:23;;;;;;;;;;;20.50;44.50;;;;;;682688;29;1907;-84
2021/12/20 01:10:49;;;;;;;;;;;20.50;44.60;;;;;;682502;28;831;-84
2021/12/20 01:11:10;;;;;;;;;;;20.50;44.50;;;;;;682801;29;752;-85
2021/12/20 01:11:37;;;;;;;;;;;20.50;44.50;;;;;;684364;28;1254;-82
2021/12/20 01:12:03;;;;;;;;;;;20.50;44.50;;;;;;685565;28;877;-83
2021/12/20 01:12:28;;;;;;;;;;;20.50;44.60;;;;;;685476;28;889;-82
2021/12/20 01:12:50;;;;;;;;;;;20.50;44.40;;;;;;685238;28;1127;-81
2021/12/20 01:13:13;;;;;;;;;;;20.50;44.50;;;;;;682605;28;1615;-83
2021/12/20 01:13:39;;;;;;;;;;;20.50;44.50;;;;;;682820;29;850;-84
2021/12/20 01:14:00;;;;;;;;;;;20.50;44.40;;;;;;682572;28;1064;-86
2021/12/20 01:14:26;;;;;;;;;;;20.50;44.30;;;;;;682621;29;1248;-85
2021/12/20 01:14:47;;;;;;;;;;;20.50;44.40;;;;;;684659;28;815;-83
2021/12/20 01:15:08;;;;;;;;;;;20.50;44.40;;;;;;687343;28;779;-82
2021/12/20 01:15:34;;;;;;;;;;;20.50;44.40;;;;;;688184;28;902;-84
2021/12/20 01:15:57;;;;;;;;;;;20.50;44.50;;;;;;688199;28;822;-83
2021/12/20 01:16:18;;;;;;;;;;;20.50;45.60;;;;;;685307;28;1567;-83
2021/12/20 01:16:38;;;;;;;;;;;20.50;44.40;;;;;;685457;28;771;-81
2021/12/20 01:17:05;;;;;;;;;;;20.50;44.40;;;;;;685062;28;911;-82
2021/12/20 01:17:25;;;;;;;;;;;20.50;44.50;;;;;;685435;28;744;-85
2021/12/20 01:17:46;;;;;;;;;;;20.50;44.30;;;;;;682631;28;1248;-83
2021/12/20 01:18:07;;;;;;;;;;;20.50;44.30;;;;;;683784;28;863;-83
2021/12/20 01:18:28;;;;;;;;;;;20.50;44.30;;;;;;682733;28;1411;-84
2021/12/20 01:18:48;;;;;;;;;;;20.50;44.40;;;;;;682535;28;894;-85
2021/12/20 01:19:09;;;;;;;;;;;20.50;44.30;;;;;;682482;28;1376;-82
2021/12/20 01:19:29;;;;;;;;;;;20.50;44.40;;;;;;682654;29;862;-82
2021/12/20 01:19:50;;;;;;;;;;;20.50;44.30;;;;;;682582;28;1233;-83
2021/12/20 01:20:11;;;;;;;;;;;20.50;44.30;;;;;;682703;29;878;-82
2021/12/20 01:20:32;;;;;;;;;;;19.80;44.00;;;;;;682787;29;930;-87
2021/12/20 01:20:52;;;;;;;;;;;20.50;44.30;;;;;;685281;28;1076;-82
2021/12/20 01:21:13;;;;;;;;;;;20.50;44.30;;;;;;687846;28;810;-84
2021/12/20 01:21:34;;;;;;;;;;;20.80;44.50;;;;;;688303;28;1125;-84
2021/12/20 01:21:54;;;;;;;;;;;20.50;44.30;;;;;;688045;28;1358;-85
2021/12/20 01:22:15;;;;;;;;;;;20.50;44.30;;;;;;688141;28;862;-83
2021/12/20 01:22:36;;;;;;;;;;;20.50;44.30;;;;;;688097;28;854;-83
2021/12/20 01:22:56;;;;;;;;;;;20.50;44.30;;;;;;687948;28;882;-82
2021/12/20 01:23:18;;;;;;;;;;;20.50;44.30;;;;;;687349;28;1263;-82
2021/12/20 01:23:39;;;;;;;;;;;20.50;44.20;;;;;;685453;28;775;-83
2021/12/20 01:23:59;;;;;;;;;;;20.50;44.30;;;;;;687815;28;866;-82
2021/12/20 01:24:20;;;;;;;;;;;20.50;44.40;;;;;;688017;28;818;-84
2021/12/20 01:24:40;;;;;;;;;;;20.50;44.30;;;;;;688041;28;905;-82
2021/12/20 01:25:02;;;;;;;;;;;20.50;44.30;;;;;;688088;28;857;-85
2021/12/20 01:25:22;;;;;;;;;;;20.50;44.30;;;;;;693214;28;1275;-82
2021/12/20 01:25:44;;;;;;;;;;;20.50;44.30;;;;;;693561;28;822;-83
2021/12/20 01:26:04;;;;;;;;;;;20.50;44.30;;;;;;690792;28;1082;-84
2021/12/20 01:26:25;;;;;;;;;;;20.50;44.20;;;;;;690679;28;862;-85
2021/12/20 01:26:46;;;;;;;;;;;20.50;44.20;;;;;;690673;28;827;-83
2021/12/20 01:27:06;;;;;;;;;;;20.50;44.30;;;;;;687508;28;1312;-85
2021/12/20 01:27:27;;;;;;;;;;;20.50;44.20;;;;;;685300;28;882;-83
2021/12/20 01:27:48;;;;;;;;;;;20.50;44.20;;;;;;685740;28;803;-83
2021/12/20 01:28:09;;;;;;;;;;;20.50;44.30;;;;;;688153;28;826;-84
2021/12/20 01:28:29;;;;;;;;;;;20.50;44.20;;;;;;685334;28;1286;-85
2021/12/20 01:28:50;;;;;;;;;;;20.50;44.20;;;;;;685290;28;890;-84
2021/12/20 01:29:11;;;;;;;;;;;20.50;44.20;;;;;;685340;28;822;-85
2021/12/20 01:29:32;;;;;;;;;;;20.50;44.30;;;;;;685167;28;846;-84
2021/12/20 01:29:53;;;;;;;;;;;20.50;44.20;;;;;;685330;28;949;-85
2021/12/20 01:30:14;;;;;;;;;;;20.50;44.30;;;;;;683037;28;1504;-83
2021/12/20 01:30:35;;;;;;;;;;;20.50;44.20;;;;;;685348;28;990;-83
2021/12/20 01:30:56;;;;;;;;;;;20.40;44.10;;;;;;685288;28;949;-84
2021/12/20 01:31:16;;;;;;;;;;;20.50;44.20;;;;;;683165;28;988;-83
2021/12/20 01:31:37;;;;;;;;;;;20.50;44.20;;;;;;682850;28;815;-82
2021/12/20 01:31:57;;;;;;;;;;;20.50;44.10;;;;;;685874;28;830;-82
2021/12/20 01:32:18;;;;;;;;;;;20.50;44.20;;;;;;688106;28;791;-83
2021/12/20 01:32:40;;;;;;;;;;;20.50;44.20;;;;;;688013;28;917;-82
2021/12/20 01:33:00;;;;;;;;;;;20.50;44.20;;;;;;688325;28;859;-83
2021/12/20 01:33:21;;;;;;;;;;;20.40;44.10;;;;;;690702;28;858;-85
2021/12/20 01:33:41;;;;;;;;;;;20.50;44.20;;;;;;687696;28;1099;-83
2021/12/20 01:34:02;;;;;;;;;;;20.50;44.10;;;;;;688164;28;1371;-85
2021/12/20 01:34:23;;;;;;;;;;;20.50;44.20;;;;;;687927;28;937;-84
2021/12/20 01:34:43;;;;;;;;;;;20.50;44.20;;;;;;687699;28;799;-83
2021/12/20 01:35:04;;;;;;;;;;;20.40;44.10;;;;;;685318;28;794;-81
2021/12/20 01:35:26;;;;;;;;;;;20.50;44.20;;;;;;685591;28;987;-83
2021/12/20 01:35:47;;;;;;;;;;;20.50;44.20;;;;;;687913;28;869;-83
2021/12/20 01:36:07;;;;;;;;;;;20.50;44.10;;;;;;688205;28;858;-82
2021/12/20 01:36:28;;;;;;;;;;;20.40;44.10;;;;;;688125;28;878;-83
2021/12/20 01:36:48;;;;;;;;;;;20.50;44.10;;;;;;693348;28;1603;-83
2021/12/20 01:37:09;;;;;;;;;;;20.40;44.10;;;;;;693432;28;858;-81
2021/12/20 01:37:30;;;;;;;;;;;20.40;44.10;;;;;;693397;28;790;-83
2021/12/20 01:37:51;;;;;;;;;;;20.50;44.10;;;;;;693371;28;948;-83
2021/12/20 01:38:11;;;;;;;;;;;20.50;44.10;;;;;;693566;28;818;-82
2021/12/20 01:38:32;;;;;;;;;;;20.50;44.10;;;;;;692709;28;802;-81
2021/12/20 01:38:52;;;;;;;;;;;20.00;43.80;;;;;;688166;28;791;-82
2021/12/20 01:39:13;;;;;;;;;;;20.40;44.10;;;;;;693425;28;1224;-83
2021/12/20 01:39:34;;;;;;;;;;;20.50;44.20;;;;;;693459;28;732;-83
2021/12/20 01:39:58;;;;;;;;;;;20.50;44.10;;;;;;693528;28;858;-81
2021/12/20 01:40:19;;;;;;;;;;;20.40;44.30;;;;;;693288;28;1477;-83
2021/12/20 01:40:40;;;;;;;;;;;20.40;44.00;;;;;;693466;28;866;-81
2021/12/20 01:41:00;;;;;;;;;;;20.50;44.00;;;;;;689867;28;1188;-82
2021/12/20 01:41:21;;;;;;;;;;;20.40;44.00;;;;;;687975;28;1126;-84
2021/12/20 01:41:42;;;;;;;;;;;20.40;44.10;;;;;;685187;28;1185;-84
2021/12/20 01:42:04;;;;;;;;;;;20.40;44.00;;;;;;682101;28;1350;-82
2021/12/20 01:42:27;;;;;;;;;;;20.40;43.90;;;;;;680114;29;784;-83
2021/12/20 01:42:49;;;;;;;;;;;20.40;44.00;;;;;;680708;29;804;-82
2021/12/20 01:43:11;;;;;;;;;;;20.40;44.00;;;;;;683807;28;874;-84
2021/12/20 01:43:32;;;;;;;;;;;20.50;44.10;;;;;;686658;28;862;-82
2021/12/20 01:43:54;;;;;;;;;;;20.40;45.00;;;;;;688482;28;799;-81
2021/12/20 01:44:14;;;;;;;;;;;20.40;44.00;;;;;;690867;28;1291;-81
2021/12/20 01:44:36;;;;;;;;;;;20.40;43.90;;;;;;690580;28;1549;-82
2021/12/20 01:44:58;;;;;;;;;;;20.40;43.90;;;;;;690707;28;901;-82
2021/12/20 01:45:20;;;;;;;;;;;20.50;43.90;;;;;;690774;28;885;-81
2021/12/20 01:45:40;;;;;;;;;;;20.50;44.00;;;;;;690657;28;877;-81
2021/12/20 01:46:01;;;;;;;;;;;20.50;44.10;;;;;;689653;28;1326;-81
2021/12/20 01:46:23;;;;;;;;;;;20.40;44.00;;;;;;686989;28;874;-81
2021/12/20 01:46:44;;;;;;;;;;;20.50;44.00;;;;;;685229;28;831;-83
2021/12/20 01:47:04;;;;;;;;;;;20.40;43.90;;;;;;682499;29;1247;-82
2021/12/20 01:47:32;;;;;;;;;;;20.40;43.90;;;;;;682748;29;795;-84
2021/12/20 01:48:09;;;;;;;;;;;20.40;43.90;;;;;;683990;28;803;-82
2021/12/20 01:48:30;;;;;;;;;;;20.40;43.90;;;;;;685231;28;830;-82
2021/12/20 01:48:51;;;;;;;;;;;20.40;43.90;;;;;;685322;28;847;-82
2021/12/20 01:49:15;;;;;;;;;;;20.40;43.90;;;;;;685589;28;842;-82
2021/12/20 01:49:43;;;;;;;;;;;20.40;43.90;;;;;;685430;28;810;-84
2021/12/20 01:50:16;;;;;;;;;;;20.40;43.90;;;;;;688057;28;1442;-83
2021/12/20 01:52:14;;;;;;;;;;;20.40;43.80;;;;;;685517;28;641;-82
2021/12/20 01:52:41;;;;;;;;;;;20.40;43.80;;;;;;685319;28;854;-84
2021/12/20 01:53:01;;;;;;;;;;;20.40;43.90;;;;;;685377;28;1326;-83
2021/12/20 01:53:23;;;;;;;;;;;20.40;43.80;;;;;;685254;28;1513;-82
2021/12/20 01:53:44;;;;;;;;;;;20.40;43.90;;;;;;685257;28;894;-83
2021/12/20 01:54:04;;;;;;;;;;;20.40;43.80;;;;;;685489;28;728;-83
2021/12/20 01:54:25;;;;;;;;;;;20.40;43.90;;;;;;682590;28;1235;-80
2021/12/20 01:54:46;;;;;;;;;;;20.40;43.90;;;;;;682353;29;871;-84
2021/12/20 01:55:07;;;;;;;;;;;20.40;43.80;;;;;;683147;28;850;-81
2021/12/20 01:55:28;;;;;;;;;;;20.40;43.90;;;;;;682737;29;1234;-83
2021/12/20 01:55:50;;;;;;;;;;;20.40;43.80;;;;;;682630;29;835;-82
2021/12/20 01:56:11;;;;;;;;;;;20.40;43.80;;;;;;683317;28;823;-81
2021/12/20 01:56:35;;;;;;;;;;;20.40;43.70;;;;;;685344;28;854;-81
2021/12/20 01:56:56;;;;;;;;;;;20.40;43.80;;;;;;685002;28;1444;-84
2021/12/20 01:57:17;;;;;;;;;;;20.40;43.80;;;;;;686363;28;883;-82
2021/12/20 01:57:37;;;;;;;;;;;20.40;43.90;;;;;;688045;28;779;-82
2021/12/20 01:57:58;;;;;;;;;;;20.40;43.80;;;;;;687909;28;1591;-83
2021/12/20 01:58:18;;;;;;;;;;;20.40;43.70;;;;;;688070;28;787;-83
2021/12/20 01:58:39;;;;;;;;;;;20.40;43.80;;;;;;687636;28;882;-82
2021/12/20 01:59:03;;;;;;;;;;;20.40;43.80;;;;;;685105;28;937;-84
2021/12/20 01:59:23;;;;;;;;;;;20.40;43.80;;;;;;682661;28;863;-82
2021/12/20 01:59:44;;;;;;;;;;;20.40;43.80;;;;;;685475;28;1246;-83
2021/12/20 02:00:06;;;;;;;;;;;20.40;43.80;;;;;;685253;28;961;-82
2021/12/20 02:00:28;;;;;;;;;;;20.40;43.80;;;;;;682570;28;846;-83
2021/12/20 02:01:24;;;;;;;;;;;20.40;43.80;;;;;;685249;28;810;-82
2021/12/20 02:01:46;;;;;;;;;;;20.40;43.70;;;;;;682525;29;1202;-82
2021/12/20 02:02:07;;;;;;;;;;;20.40;43.80;;;;;;682703;29;855;-83
2021/12/20 02:02:27;;;;;;;;;;;20.40;43.70;;;;;;685090;28;863;-83
2021/12/20 02:02:51;;;;;;;;;;;20.40;43.80;;;;;;685152;28;839;-83
2021/12/20 02:03:13;;;;;;;;;;;20.40;43.70;;;;;;685158;28;949;-85
2021/12/20 02:03:46;;;;;;;;;;;20.40;43.70;;;;;;686269;28;826;-85
2021/12/20 02:04:08;;;;;;;;;;;20.40;43.60;;;;;;688052;28;811;-83
2021/12/20 02:04:29;;;;;;;;;;;20.40;43.70;;;;;;688029;28;810;-82
2021/12/20 02:04:51;;;;;;;;;;;20.40;43.70;;;;;;687926;28;842;-81
2021/12/20 02:05:21;;;;;;;;;;;20.40;43.70;;;;;;687724;28;902;-81
2021/12/20 02:05:51;;;;;;;;;;;20.40;43.60;;;;;;687970;28;918;-84
2021/12/20 02:06:24;;;;;;;;;;;20.40;43.60;;;;;;685334;28;827;-82
2021/12/20 02:06:47;;;;;;;;;;;20.40;43.60;;;;;;685207;28;862;-81
2021/12/20 02:07:08;;;;;;;;;;;20.40;43.70;;;;;;685186;28;783;-83
2021/12/20 02:07:37;;;;;;;;;;;20.40;43.60;;;;;;685518;28;819;-85
2021/12/20 02:08:01;;;;;;;;;;;20.40;43.60;;;;;;685370;28;802;-82
2021/12/20 02:08:25;;;;;;;;;;;20.40;43.70;;;;;;685549;28;922;-83
2021/12/20 02:08:46;;;;;;;;;;;20.40;43.60;;;;;;685502;28;815;-83
2021/12/20 02:09:11;;;;;;;;;;;20.40;43.60;;;;;;687810;28;1223;-85
2021/12/20 02:09:31;;;;;;;;;;;20.40;43.60;;;;;;685084;28;838;-84
2021/12/20 02:09:52;;;;;;;;;;;20.40;43.60;;;;;;685257;28;803;-82
2021/12/20 02:10:13;;;;;;;;;;;20.40;43.60;;;;;;685324;28;878;-85
2021/12/20 02:10:34;;;;;;;;;;;20.40;43.50;;;;;;685253;28;1974;-84
2021/12/20 02:10:58;;;;;;;;;;;20.40;43.50;;;;;;682493;28;870;-85
2021/12/20 02:11:20;;;;;;;;;;;20.40;43.60;;;;;;683425;28;835;-85
2021/12/20 02:11:41;;;;;;;;;;;20.40;43.60;;;;;;685170;28;866;-83
2021/12/20 02:12:02;;;;;;;;;;;20.40;43.60;;;;;;685350;28;822;-84
2021/12/20 02:12:24;;;;;;;;;;;20.30;43.60;;;;;;685354;28;834;-84
2021/12/20 02:12:45;;;;;;;;;;;20.40;43.60;;;;;;685343;28;775;-83
2021/12/20 02:13:05;;;;;;;;;;;20.40;43.60;;;;;;685478;28;811;-84
2021/12/20 02:13:28;;;;;;;;;;;20.40;43.60;;;;;;685498;28;1016;-84
2021/12/20 02:13:49;;;;;;;;;;;20.40;43.50;;;;;;685527;28;783;-81
2021/12/20 02:14:10;;;;;;;;;;;20.40;43.50;;;;;;687730;28;1036;-83
2021/12/20 02:14:31;;;;;;;;;;;20.40;43.60;;;;;;688154;28;791;-81
2021/12/20 02:14:51;;;;;;;;;;;20.40;43.50;;;;;;687981;28;889;-82
2021/12/20 02:15:12;;;;;;;;;;;20.40;43.50;;;;;;687918;28;803;-81
2021/12/20 02:15:33;;;;;;;;;;;20.40;43.60;;;;;;687893;28;886;-80